Aviation Digital Data Service (ADDS)

Output produced by METARs form (1038 UTC 25 October 2020)
found at http://aviationweather.gov/metar/data/
 
TAF EPDA 250800Z 2509/2518 18010KT CAVOK